sensor_id;sensor_type;location;lat;lon;timestamp;pressure;altitude;pressure_sealevel;temperature;humidity
7986;BME280;4038;42.612;23.066;2022-07-17T00:00:12;93471.75;;;33.24;36.35
7986;BME280;4038;42.612;23.066;2022-07-17T00:02:38;93476.25;;;32.86;37.11
7986;BME280;4038;42.612;23.066;2022-07-17T00:05:04;93480.91;;;32.66;36.67
7986;BME280;4038;42.612;23.066;2022-07-17T00:07:30;93481.03;;;32.00;37.41
7986;BME280;4038;42.612;23.066;2022-07-17T00:09:55;93476.72;;;30.95;39.30
7986;BME280;4038;42.612;23.066;2022-07-17T00:12:21;93480.09;;;31.17;39.33
7986;BME280;4038;42.612;23.066;2022-07-17T00:14:46;93475.16;;;32.37;36.40
7986;BME280;4038;42.612;23.066;2022-07-17T00:17:11;93471.38;;;32.05;36.24
7986;BME280;4038;42.612;23.066;2022-07-17T00:19:37;93475.91;;;31.96;38.19
7986;BME280;4038;42.612;23.066;2022-07-17T00:22:03;93483.56;;;32.35;37.45
7986;BME280;4038;42.612;23.066;2022-07-17T00:24:28;93478.75;;;32.24;36.00
7986;BME280;4038;42.612;23.066;2022-07-17T00:26:54;93474.78;;;30.38;39.09
7986;BME280;4038;42.612;23.066;2022-07-17T00:29:20;93473.00;;;31.30;38.03
7986;BME280;4038;42.612;23.066;2022-07-17T00:31:45;93471.31;;;30.62;39.21
7986;BME280;4038;42.612;23.066;2022-07-17T00:34:11;93476.09;;;31.87;37.83
7986;BME280;4038;42.612;23.066;2022-07-17T00:36:37;93482.94;;;32.77;35.90
7986;BME280;4038;42.612;23.066;2022-07-17T00:39:03;93478.91;;;33.25;34.46
7986;BME280;4038;42.612;23.066;2022-07-17T00:41:29;93477.25;;;32.50;33.73
7986;BME280;4038;42.612;23.066;2022-07-17T00:43:54;93487.50;;;33.57;34.25
7986;BME280;4038;42.612;23.066;2022-07-17T00:46:20;93487.53;;;33.27;36.49
7986;BME280;4038;42.612;23.066;2022-07-17T00:48:46;93495.00;;;33.66;35.23
7986;BME280;4038;42.612;23.066;2022-07-17T00:51:11;93488.72;;;33.38;34.49
7986;BME280;4038;42.612;23.066;2022-07-17T00:53:37;93492.34;;;33.54;35.27
7986;BME280;4038;42.612;23.066;2022-07-17T00:56:05;93497.16;;;33.07;35.50
7986;BME280;4038;42.612;23.066;2022-07-17T00:58:34;93490.28;;;33.12;36.25
7986;BME280;4038;42.612;23.066;2022-07-17T01:01:00;93492.28;;;32.80;36.86
7986;BME280;4038;42.612;23.066;2022-07-17T01:03:28;93496.34;;;32.90;36.53
7986;BME280;4038;42.612;23.066;2022-07-17T01:05:53;93491.69;;;30.24;41.87
7986;BME280;4038;42.612;23.066;2022-07-17T01:08:19;93480.69;;;31.80;38.50
7986;BME280;4038;42.612;23.066;2022-07-17T01:10:45;93483.44;;;32.60;36.72
7986;BME280;4038;42.612;23.066;2022-07-17T01:13:10;93487.00;;;32.88;35.95
7986;BME280;4038;42.612;23.066;2022-07-17T01:15:37;93491.00;;;33.26;35.84
7986;BME280;4038;42.612;23.066;2022-07-17T01:18:09;93480.66;;;33.78;32.53
7986;BME280;4038;42.612;23.066;2022-07-17T01:20:37;93477.13;;;33.18;33.94
7986;BME280;4038;42.612;23.066;2022-07-17T01:23:03;93481.28;;;33.02;34.46
7986;BME280;4038;42.612;23.066;2022-07-17T01:25:28;93480.00;;;32.48;36.20
7986;BME280;4038;42.612;23.066;2022-07-17T01:27:54;93484.44;;;32.24;37.99
7986;BME280;4038;42.612;23.066;2022-07-17T01:30:20;93494.22;;;33.05;36.62
7986;BME280;4038;42.612;23.066;2022-07-17T01:32:45;93496.47;;;32.65;37.30
7986;BME280;4038;42.612;23.066;2022-07-17T01:35:12;93490.78;;;31.69;39.26
7986;BME280;4038;42.612;23.066;2022-07-17T01:37:41;93484.53;;;32.12;38.45
7986;BME280;4038;42.612;23.066;2022-07-17T01:40:09;93487.13;;;31.94;37.14
7986;BME280;4038;42.612;23.066;2022-07-17T01:42:35;93496.91;;;32.05;37.23
7986;BME280;4038;42.612;23.066;2022-07-17T01:45:01;93496.31;;;32.47;37.79
7986;BME280;4038;42.612;23.066;2022-07-17T01:47:26;93502.41;;;32.42;36.96
7986;BME280;4038;42.612;23.066;2022-07-17T01:49:55;93503.78;;;32.27;37.43
7986;BME280;4038;42.612;23.066;2022-07-17T01:52:23;93495.53;;;31.92;37.07
7986;BME280;4038;42.612;23.066;2022-07-17T01:54:48;93494.56;;;31.74;37.47
7986;BME280;4038;42.612;23.066;2022-07-17T01:57:14;93498.25;;;33.74;34.29
7986;BME280;4038;42.612;23.066;2022-07-17T01:59:40;93498.91;;;34.20;32.90
7986;BME280;4038;42.612;23.066;2022-07-17T02:02:07;93500.06;;;33.67;33.43
7986;BME280;4038;42.612;23.066;2022-07-17T02:04:34;93507.13;;;33.66;32.47
7986;BME280;4038;42.612;23.066;2022-07-17T02:07:00;93500.38;;;33.44;32.10
7986;BME280;4038;42.612;23.066;2022-07-17T02:09:25;93502.34;;;32.97;33.00
7986;BME280;4038;42.612;23.066;2022-07-17T02:11:51;93509.31;;;32.80;32.69
7986;BME280;4038;42.612;23.066;2022-07-17T02:14:17;93505.81;;;33.54;31.16
7986;BME280;4038;42.612;23.066;2022-07-17T02:16:43;93501.97;;;32.61;33.10
7986;BME280;4038;42.612;23.066;2022-07-17T02:19:08;93482.41;;;30.35;34.61
7986;BME280;4038;42.612;23.066;2022-07-17T02:21:34;93486.38;;;29.83;34.99
7986;BME280;4038;42.612;23.066;2022-07-17T02:23:59;93490.09;;;30.70;34.77
7986;BME280;4038;42.612;23.066;2022-07-17T02:26:24;93481.94;;;29.57;36.72
7986;BME280;4038;42.612;23.066;2022-07-17T02:28:50;93473.84;;;29.19;37.45
7986;BME280;4038;42.612;23.066;2022-07-17T02:31:15;93484.59;;;30.48;34.65
7986;BME280;4038;42.612;23.066;2022-07-17T02:33:41;93485.44;;;31.89;32.87
7986;BME280;4038;42.612;23.066;2022-07-17T02:36:06;93494.53;;;32.27;32.76
7986;BME280;4038;42.612;23.066;2022-07-17T02:38:32;93491.41;;;31.42;32.82
7986;BME280;4038;42.612;23.066;2022-07-17T02:40:57;93499.97;;;33.65;30.27
7986;BME280;4038;42.612;23.066;2022-07-17T02:43:22;93506.72;;;33.13;31.06
7986;BME280;4038;42.612;23.066;2022-07-17T02:45:48;93503.06;;;34.66;29.02
7986;BME280;4038;42.612;23.066;2022-07-17T02:48:13;93504.03;;;34.39;29.83
7986;BME280;4038;42.612;23.066;2022-07-17T02:50:42;93504.63;;;33.59;29.72
7986;BME280;4038;42.612;23.066;2022-07-17T02:53:07;93498.94;;;33.14;30.86
7986;BME280;4038;42.612;23.066;2022-07-17T02:55:33;93495.63;;;33.64;29.94
7986;BME280;4038;42.612;23.066;2022-07-17T02:57:58;93497.31;;;32.81;30.82
7986;BME280;4038;42.612;23.066;2022-07-17T03:00:24;93508.53;;;32.93;30.73
7986;BME280;4038;42.612;23.066;2022-07-17T03:02:52;93509.63;;;32.58;31.17
7986;BME280;4038;42.612;23.066;2022-07-17T03:05:17;93514.06;;;31.42;32.22
7986;BME280;4038;42.612;23.066;2022-07-17T03:07:43;93512.53;;;31.92;32.12
7986;BME280;4038;42.612;23.066;2022-07-17T03:10:09;93516.06;;;31.65;33.12
7986;BME280;4038;42.612;23.066;2022-07-17T03:12:35;93510.41;;;31.79;32.65
7986;BME280;4038;42.612;23.066;2022-07-17T03:15:00;93520.06;;;32.54;31.65
7986;BME280;4038;42.612;23.066;2022-07-17T03:17:26;93517.53;;;30.79;33.59
7986;BME280;4038;42.612;23.066;2022-07-17T03:19:51;93520.88;;;31.63;32.24
7986;BME280;4038;42.612;23.066;2022-07-17T03:22:17;93512.16;;;31.33;32.53
7986;BME280;4038;42.612;23.066;2022-07-17T03:24:42;93529.72;;;30.70;33.49
7986;BME280;4038;42.612;23.066;2022-07-17T03:27:08;93535.09;;;30.89;33.25
7986;BME280;4038;42.612;23.066;2022-07-17T03:29:33;93539.63;;;30.45;33.89
7986;BME280;4038;42.612;23.066;2022-07-17T03:31:59;93537.56;;;30.11;34.85
7986;BME280;4038;42.612;23.066;2022-07-17T03:34:24;93541.13;;;30.23;33.75
7986;BME280;4038;42.612;23.066;2022-07-17T03:36:50;93535.25;;;29.63;34.39
7986;BME280;4038;42.612;23.066;2022-07-17T03:39:15;93547.53;;;29.56;34.69
7986;BME280;4038;42.612;23.066;2022-07-17T03:41:41;93535.59;;;30.02;33.35
7986;BME280;4038;42.612;23.066;2022-07-17T03:44:06;93539.97;;;29.81;34.05
7986;BME280;4038;42.612;23.066;2022-07-17T03:46:32;93551.47;;;30.90;32.52
7986;BME280;4038;42.612;23.066;2022-07-17T03:48:57;93556.50;;;30.92;32.08
7986;BME280;4038;42.612;23.066;2022-07-17T03:51:24;93555.19;;;31.94;31.23
7986;BME280;4038;42.612;23.066;2022-07-17T03:53:49;93554.84;;;32.54;30.44
7986;BME280;4038;42.612;23.066;2022-07-17T03:56:14;93550.56;;;33.24;30.16
7986;BME280;4038;42.612;23.066;2022-07-17T03:58:40;93559.72;;;33.22;29.88
7986;BME280;4038;42.612;23.066;2022-07-17T04:01:05;93552.34;;;33.60;29.29
7986;BME280;4038;42.612;23.066;2022-07-17T04:03:31;93560.84;;;33.90;29.13
7986;BME280;4038;42.612;23.066;2022-07-17T04:05:56;93564.34;;;34.04;28.71
7986;BME280;4038;42.612;23.066;2022-07-17T04:08:21;93567.31;;;34.22;28.84
7986;BME280;4038;42.612;23.066;2022-07-17T04:10:47;93556.97;;;32.54;30.54
7986;BME280;4038;42.612;23.066;2022-07-17T04:13:12;93563.88;;;31.34;32.38
7986;BME280;4038;42.612;23.066;2022-07-17T04:15:38;93559.88;;;31.25;32.70
7986;BME280;4038;42.612;23.066;2022-07-17T04:18:26;93571.38;;;33.42;29.52
7986;BME280;4038;42.612;23.066;2022-07-17T04:20:53;93567.34;;;32.22;32.80
7986;BME280;4038;42.612;23.066;2022-07-17T04:23:19;93577.16;;;33.74;30.30
7986;BME280;4038;42.612;23.066;2022-07-17T04:25:44;93579.34;;;32.62;32.12
7986;BME280;4038;42.612;23.066;2022-07-17T04:28:11;93585.19;;;33.34;30.75
7986;BME280;4038;42.612;23.066;2022-07-17T04:30:37;93579.94;;;34.66;29.20
7986;BME280;4038;42.612;23.066;2022-07-17T04:33:03;93583.00;;;34.38;29.46
7986;BME280;4038;42.612;23.066;2022-07-17T04:35:29;93588.31;;;33.69;29.34
7986;BME280;4038;42.612;23.066;2022-07-17T04:37:55;93589.53;;;32.53;30.65
7986;BME280;4038;42.612;23.066;2022-07-17T04:40:20;93588.56;;;32.35;30.93
7986;BME280;4038;42.612;23.066;2022-07-17T04:42:46;93582.56;;;33.24;29.71
7986;BME280;4038;42.612;23.066;2022-07-17T04:45:11;93589.31;;;33.04;30.60
7986;BME280;4038;42.612;23.066;2022-07-17T04:47:38;93597.81;;;33.60;29.54
7986;BME280;4038;42.612;23.066;2022-07-17T04:50:04;93589.59;;;33.37;29.97
7986;BME280;4038;42.612;23.066;2022-07-17T04:52:30;93601.72;;;33.10;30.33
7986;BME280;4038;42.612;23.066;2022-07-17T04:54:55;93605.06;;;33.77;28.97
7986;BME280;4038;42.612;23.066;2022-07-17T04:57:20;93597.63;;;33.56;28.77
7986;BME280;4038;42.612;23.066;2022-07-17T04:59:46;93592.84;;;34.35;27.57
7986;BME280;4038;42.612;23.066;2022-07-17T05:02:11;93597.13;;;34.21;27.80
7986;BME280;4038;42.612;23.066;2022-07-17T05:04:37;93603.91;;;33.68;28.16
7986;BME280;4038;42.612;23.066;2022-07-17T05:07:02;93598.13;;;33.66;28.42
7986;BME280;4038;42.612;23.066;2022-07-17T05:09:28;93611.16;;;34.01;28.05
7986;BME280;4038;42.612;23.066;2022-07-17T05:11:56;93600.22;;;34.72;27.28
7986;BME280;4038;42.612;23.066;2022-07-17T05:14:21;93609.44;;;35.55;26.55
7986;BME280;4038;42.612;23.066;2022-07-17T05:16:46;93613.41;;;33.59;29.23
7986;BME280;4038;42.612;23.066;2022-07-17T05:19:12;93617.44;;;34.44;28.43
7986;BME280;4038;42.612;23.066;2022-07-17T05:21:38;93613.19;;;33.98;29.25
7986;BME280;4038;42.612;23.066;2022-07-17T05:24:04;93612.50;;;32.84;31.04
7986;BME280;4038;42.612;23.066;2022-07-17T05:26:29;93616.31;;;33.46;30.64
7986;BME280;4038;42.612;23.066;2022-07-17T05:28:54;93612.56;;;33.14;31.33
7986;BME280;4038;42.612;23.066;2022-07-17T05:31:20;93618.16;;;33.12;31.17
7986;BME280;4038;42.612;23.066;2022-07-17T05:33:45;93621.25;;;32.22;31.96
7986;BME280;4038;42.612;23.066;2022-07-17T05:36:11;93618.13;;;31.65;32.25
7986;BME280;4038;42.612;23.066;2022-07-17T05:38:36;93627.09;;;32.92;31.22
7986;BME280;4038;42.612;23.066;2022-07-17T05:41:02;93628.56;;;33.07;30.24
7986;BME280;4038;42.612;23.066;2022-07-17T05:43:28;93634.25;;;34.54;28.42
7986;BME280;4038;42.612;23.066;2022-07-17T05:45:54;93640.31;;;34.46;27.80
7986;BME280;4038;42.612;23.066;2022-07-17T05:48:20;93638.94;;;34.95;27.88
7986;BME280;4038;42.612;23.066;2022-07-17T05:50:46;93624.81;;;34.50;27.66
7986;BME280;4038;42.612;23.066;2022-07-17T05:53:11;93624.03;;;34.96;26.95
7986;BME280;4038;42.612;23.066;2022-07-17T05:55:36;93627.69;;;34.04;28.15
7986;BME280;4038;42.612;23.066;2022-07-17T05:58:02;93623.63;;;34.86;26.01
7986;BME280;4038;42.612;23.066;2022-07-17T06:00:27;93619.63;;;35.60;25.05
7986;BME280;4038;42.612;23.066;2022-07-17T06:02:53;93633.53;;;34.54;26.15
7986;BME280;4038;42.612;23.066;2022-07-17T06:05:18;93623.50;;;34.68;25.71
7986;BME280;4038;42.612;23.066;2022-07-17T06:07:44;93624.22;;;36.20;24.16
7986;BME280;4038;42.612;23.066;2022-07-17T06:10:10;93629.13;;;36.18;24.51
7986;BME280;4038;42.612;23.066;2022-07-17T06:12:35;93626.88;;;35.45;25.68
7986;BME280;4038;42.612;23.066;2022-07-17T06:15:00;93628.81;;;35.07;25.33
7986;BME280;4038;42.612;23.066;2022-07-17T06:17:26;93623.91;;;35.26;24.79
7986;BME280;4038;42.612;23.066;2022-07-17T06:19:53;93627.84;;;35.52;24.29
7986;BME280;4038;42.612;23.066;2022-07-17T06:22:19;93636.19;;;34.81;24.25
7986;BME280;4038;42.612;23.066;2022-07-17T06:24:45;93638.22;;;36.32;23.10
7986;BME280;4038;42.612;23.066;2022-07-17T06:27:11;93641.34;;;38.67;21.71
7986;BME280;4038;42.612;23.066;2022-07-17T06:29:36;93629.78;;;38.89;20.59
7986;BME280;4038;42.612;23.066;2022-07-17T06:32:02;93637.69;;;38.65;20.62
7986;BME280;4038;42.612;23.066;2022-07-17T06:34:27;93639.59;;;39.32;19.82
7986;BME280;4038;42.612;23.066;2022-07-17T06:36:53;93641.72;;;41.87;17.79
7986;BME280;4038;42.612;23.066;2022-07-17T06:39:18;93634.34;;;39.50;19.57
7986;BME280;4038;42.612;23.066;2022-07-17T06:41:43;93632.03;;;38.67;20.26
7986;BME280;4038;42.612;23.066;2022-07-17T06:44:09;93634.00;;;38.86;20.54
7986;BME280;4038;42.612;23.066;2022-07-17T06:46:34;93647.66;;;39.12;19.48
7986;BME280;4038;42.612;23.066;2022-07-17T06:49:00;93643.13;;;39.84;18.85
7986;BME280;4038;42.612;23.066;2022-07-17T06:51:25;93638.25;;;40.50;18.08
7986;BME280;4038;42.612;23.066;2022-07-17T06:53:50;93639.78;;;41.97;16.99
7986;BME280;4038;42.612;23.066;2022-07-17T06:56:16;93646.13;;;42.34;16.94
7986;BME280;4038;42.612;23.066;2022-07-17T06:58:41;93651.72;;;40.42;18.33
7986;BME280;4038;42.612;23.066;2022-07-17T07:01:07;93650.00;;;40.01;18.56
7986;BME280;4038;42.612;23.066;2022-07-17T07:03:32;93654.78;;;38.61;18.65
7986;BME280;4038;42.612;23.066;2022-07-17T07:05:58;93669.47;;;39.23;18.92
7986;BME280;4038;42.612;23.066;2022-07-17T07:08:24;93636.75;;;38.35;19.98
7986;BME280;4038;42.612;23.066;2022-07-17T07:10:50;93663.78;;;40.06;18.57
7986;BME280;4038;42.612;23.066;2022-07-17T07:13:16;93648.81;;;39.54;18.49
7986;BME280;4038;42.612;23.066;2022-07-17T07:15:41;93666.50;;;39.72;18.71
7986;BME280;4038;42.612;23.066;2022-07-17T07:18:07;93664.13;;;39.37;18.88
7986;BME280;4038;42.612;23.066;2022-07-17T07:20:33;93652.00;;;41.56;17.18
7986;BME280;4038;42.612;23.066;2022-07-17T07:22:58;93670.59;;;38.64;19.16
7986;BME280;4038;42.612;23.066;2022-07-17T07:25:24;93663.53;;;37.36;20.52
7986;BME280;4038;42.612;23.066;2022-07-17T07:27:49;93666.69;;;37.44;19.97
7986;BME280;4038;42.612;23.066;2022-07-17T07:30:15;93666.56;;;37.21;20.72
7986;BME280;4038;42.612;23.066;2022-07-17T07:32:40;93654.28;;;38.01;19.77
7986;BME280;4038;42.612;23.066;2022-07-17T07:35:07;93670.59;;;37.13;20.67
7986;BME280;4038;42.612;23.066;2022-07-17T07:37:32;93662.72;;;40.83;18.12
7986;BME280;4038;42.612;23.066;2022-07-17T07:39:58;93668.13;;;38.31;20.48
7986;BME280;4038;42.612;23.066;2022-07-17T07:42:25;93663.72;;;38.73;19.25
7986;BME280;4038;42.612;23.066;2022-07-17T07:44:50;93667.97;;;39.46;18.83
7986;BME280;4038;42.612;23.066;2022-07-17T07:47:15;93672.84;;;39.41;18.91
7986;BME280;4038;42.612;23.066;2022-07-17T07:49:41;93675.38;;;38.34;19.53
7986;BME280;4038;42.612;23.066;2022-07-17T07:52:06;93676.34;;;38.64;19.82
7986;BME280;4038;42.612;23.066;2022-07-17T07:54:32;93675.94;;;39.23;19.31
7986;BME280;4038;42.612;23.066;2022-07-17T07:56:58;93677.59;;;39.07;18.65
7986;BME280;4038;42.612;23.066;2022-07-17T07:59:23;93676.09;;;40.11;18.48
7986;BME280;4038;42.612;23.066;2022-07-17T08:01:48;93673.09;;;40.05;17.83
7986;BME280;4038;42.612;23.066;2022-07-17T08:04:14;93675.47;;;38.83;19.62
7986;BME280;4038;42.612;23.066;2022-07-17T08:06:41;93679.22;;;40.51;18.20
7986;BME280;4038;42.612;23.066;2022-07-17T08:09:06;93675.91;;;39.75;18.28
7986;BME280;4038;42.612;23.066;2022-07-17T08:11:32;93679.50;;;38.74;19.19
7986;BME280;4038;42.612;23.066;2022-07-17T08:13:58;93687.13;;;40.50;18.19
7986;BME280;4038;42.612;23.066;2022-07-17T08:16:24;93678.91;;;39.01;18.82
7986;BME280;4038;42.612;23.066;2022-07-17T08:18:50;93679.13;;;39.35;19.35
7986;BME280;4038;42.612;23.066;2022-07-17T08:21:15;93673.69;;;39.46;18.89
7986;BME280;4038;42.612;23.066;2022-07-17T08:23:41;93684.69;;;39.29;19.70
7986;BME280;4038;42.612;23.066;2022-07-17T08:26:06;93676.00;;;40.07;18.38
7986;BME280;4038;42.612;23.066;2022-07-17T08:28:32;93675.72;;;38.00;19.89
7986;BME280;4038;42.612;23.066;2022-07-17T08:30:57;93682.94;;;38.69;19.54
7986;BME280;4038;42.612;23.066;2022-07-17T08:33:24;93689.94;;;39.37;19.18
7986;BME280;4038;42.612;23.066;2022-07-17T08:35:49;93688.06;;;38.96;19.63
7986;BME280;4038;42.612;23.066;2022-07-17T08:38:14;93691.22;;;39.84;18.94
7986;BME280;4038;42.612;23.066;2022-07-17T08:40:40;93685.66;;;38.64;19.31
7986;BME280;4038;42.612;23.066;2022-07-17T08:43:08;93686.41;;;39.38;18.43
7986;BME280;4038;42.612;23.066;2022-07-17T08:45:34;93681.00;;;40.98;17.41
7986;BME280;4038;42.612;23.066;2022-07-17T08:48:00;93679.63;;;41.73;17.59
7986;BME280;4038;42.612;23.066;2022-07-17T08:50:32;93672.50;;;41.76;17.31
7986;BME280;4038;42.612;23.066;2022-07-17T08:52:58;93670.56;;;42.31;16.87
7986;BME280;4038;42.612;23.066;2022-07-17T08:55:23;93668.28;;;42.69;16.37
7986;BME280;4038;42.612;23.066;2022-07-17T08:57:49;93663.16;;;43.16;15.95
7986;BME280;4038;42.612;23.066;2022-07-17T09:00:18;93662.22;;;43.59;16.09
7986;BME280;4038;42.612;23.066;2022-07-17T09:05:21;93664.44;;;44.35;15.69
7986;BME280;4038;42.612;23.066;2022-07-17T09:07:47;93661.31;;;42.38;17.12
7986;BME280;4038;42.612;23.066;2022-07-17T09:10:13;93662.06;;;39.67;18.50
7986;BME280;4038;42.612;23.066;2022-07-17T09:12:38;93663.66;;;40.94;18.57
7986;BME280;4038;42.612;23.066;2022-07-17T09:15:15;93664.09;;;40.18;18.45
7986;BME280;4038;42.612;23.066;2022-07-17T09:17:50;93652.72;;;41.20;17.91
7986;BME280;4038;42.612;23.066;2022-07-17T09:20:16;93647.72;;;42.43;16.98
7986;BME280;4038;42.612;23.066;2022-07-17T09:22:54;93665.84;;;42.07;17.90
7986;BME280;4038;42.612;23.066;2022-07-17T09:25:31;93662.13;;;40.89;18.17
7986;BME280;4038;42.612;23.066;2022-07-17T09:27:57;93663.72;;;42.54;16.95
7986;BME280;4038;42.612;23.066;2022-07-17T09:30:22;93659.81;;;39.92;18.45
7986;BME280;4038;42.612;23.066;2022-07-17T09:32:48;93664.44;;;40.33;17.93
7986;BME280;4038;42.612;23.066;2022-07-17T09:35:14;93653.63;;;40.01;18.26
7986;BME280;4038;42.612;23.066;2022-07-17T09:37:41;93659.75;;;40.47;17.82
7986;BME280;4038;42.612;23.066;2022-07-17T09:40:11;93650.75;;;40.95;18.12
7986;BME280;4038;42.612;23.066;2022-07-17T09:42:57;93650.47;;;41.53;17.54
7986;BME280;4038;42.612;23.066;2022-07-17T09:45:22;93654.59;;;41.44;18.02
7986;BME280;4038;42.612;23.066;2022-07-17T09:47:48;93659.59;;;41.79;17.61
7986;BME280;4038;42.612;23.066;2022-07-17T09:50:14;93651.59;;;42.62;16.44
7986;BME280;4038;42.612;23.066;2022-07-17T09:52:41;93650.66;;;40.59;18.42
7986;BME280;4038;42.612;23.066;2022-07-17T09:55:08;93668.09;;;40.05;18.76
7986;BME280;4038;42.612;23.066;2022-07-17T09:57:34;93661.22;;;41.50;18.50
7986;BME280;4038;42.612;23.066;2022-07-17T10:00:05;93656.78;;;39.58;19.20
7986;BME280;4038;42.612;23.066;2022-07-17T10:02:33;93658.84;;;40.71;18.57
7986;BME280;4038;42.612;23.066;2022-07-17T10:04:59;93657.03;;;42.39;16.92
7986;BME280;4038;42.612;23.066;2022-07-17T10:07:25;93652.59;;;44.05;16.58
7986;BME280;4038;42.612;23.066;2022-07-17T10:09:51;93638.28;;;42.89;16.73
7986;BME280;4038;42.612;23.066;2022-07-17T10:12:17;93645.44;;;42.35;17.41
7986;BME280;4038;42.612;23.066;2022-07-17T10:14:47;93646.78;;;41.48;18.09
7986;BME280;4038;42.612;23.066;2022-07-17T10:17:19;93650.47;;;42.35;17.44
7986;BME280;4038;42.612;23.066;2022-07-17T10:19:50;93639.81;;;42.94;16.51
7986;BME280;4038;42.612;23.066;2022-07-17T10:22:16;93642.59;;;40.83;18.28
7986;BME280;4038;42.612;23.066;2022-07-17T10:29:46;93637.50;;;41.52;17.96
7986;BME280;4038;42.612;23.066;2022-07-17T10:32:17;93639.34;;;43.82;16.47
7986;BME280;4038;42.612;23.066;2022-07-17T10:45:14;93629.59;;;44.21;15.89
7986;BME280;4038;42.612;23.066;2022-07-17T10:47:45;93623.25;;;43.58;16.74
7986;BME280;4038;42.612;23.066;2022-07-17T10:50:11;93629.38;;;42.72;17.13
7986;BME280;4038;42.612;23.066;2022-07-17T10:52:37;93630.13;;;42.73;17.38
7986;BME280;4038;42.612;23.066;2022-07-17T10:55:05;93616.31;;;42.17;17.03
7986;BME280;4038;42.612;23.066;2022-07-17T10:57:31;93632.25;;;42.72;16.46
7986;BME280;4038;42.612;23.066;2022-07-17T10:59:57;93630.56;;;43.66;15.76
7986;BME280;4038;42.612;23.066;2022-07-17T11:02:29;93627.22;;;43.27;16.29
7986;BME280;4038;42.612;23.066;2022-07-17T11:05:05;93620.06;;;45.14;15.55
7986;BME280;4038;42.612;23.066;2022-07-17T11:07:30;93625.03;;;41.79;16.90
7986;BME280;4038;42.612;23.066;2022-07-17T11:09:56;93618.94;;;43.01;16.65
7986;BME280;4038;42.612;23.066;2022-07-17T11:12:33;93613.06;;;42.39;16.45
7986;BME280;4038;42.612;23.066;2022-07-17T11:15:02;93607.84;;;40.39;18.22
7986;BME280;4038;42.612;23.066;2022-07-17T11:17:28;93621.19;;;40.90;17.93
7986;BME280;4038;42.612;23.066;2022-07-17T11:19:54;93616.00;;;41.55;17.21
7986;BME280;4038;42.612;23.066;2022-07-17T11:22:23;93611.50;;;41.86;17.06
7986;BME280;4038;42.612;23.066;2022-07-17T11:24:54;93601.00;;;43.07;16.53
7986;BME280;4038;42.612;23.066;2022-07-17T11:27:26;93612.66;;;44.76;15.39
7986;BME280;4038;42.612;23.066;2022-07-17T11:29:53;93611.78;;;44.51;15.47
7986;BME280;4038;42.612;23.066;2022-07-17T11:32:19;93601.28;;;40.35;17.95
7986;BME280;4038;42.612;23.066;2022-07-17T11:34:45;93608.97;;;38.63;19.42
7986;BME280;4038;42.612;23.066;2022-07-17T11:37:11;93599.50;;;40.19;18.83
7986;BME280;4038;42.612;23.066;2022-07-17T11:39:48;93598.47;;;41.83;17.30
7986;BME280;4038;42.612;23.066;2022-07-17T11:42:16;93595.47;;;41.37;17.94
7986;BME280;4038;42.612;23.066;2022-07-17T11:44:42;93595.72;;;42.35;17.22
7986;BME280;4038;42.612;23.066;2022-07-17T11:47:12;93598.94;;;39.67;19.00
7986;BME280;4038;42.612;23.066;2022-07-17T11:49:39;93589.75;;;40.03;18.36
7986;BME280;4038;42.612;23.066;2022-07-17T11:54:52;93579.19;;;40.41;18.83
7986;BME280;4038;42.612;23.066;2022-07-17T11:57:22;93581.00;;;40.27;18.41
7986;BME280;4038;42.612;23.066;2022-07-17T11:59:49;93586.22;;;39.21;18.92
7986;BME280;4038;42.612;23.066;2022-07-17T12:02:20;93586.84;;;40.65;18.43
7986;BME280;4038;42.612;23.066;2022-07-17T12:04:56;93576.88;;;42.28;17.36
7986;BME280;4038;42.612;23.066;2022-07-17T12:07:24;93581.94;;;40.05;19.45
7986;BME280;4038;42.612;23.066;2022-07-17T12:09:51;93592.97;;;39.05;19.48
7986;BME280;4038;42.612;23.066;2022-07-17T12:12:24;93587.72;;;41.45;18.19
7986;BME280;4038;42.612;23.066;2022-07-17T12:14:58;93583.41;;;42.82;17.32
7986;BME280;4038;42.612;23.066;2022-07-17T12:17:24;93584.09;;;41.05;18.26
7986;BME280;4038;42.612;23.066;2022-07-17T12:19:51;93568.59;;;39.88;19.36
7986;BME280;4038;42.612;23.066;2022-07-17T12:22:17;93581.88;;;39.46;19.62
7986;BME280;4038;42.612;23.066;2022-07-17T12:24:44;93582.34;;;38.84;20.73
7986;BME280;4038;42.612;23.066;2022-07-17T12:27:13;93581.94;;;40.37;18.76
7986;BME280;4038;42.612;23.066;2022-07-17T12:29:40;93569.03;;;38.21;20.88
7986;BME280;4038;42.612;23.066;2022-07-17T12:32:13;93585.94;;;39.64;20.27
7986;BME280;4038;42.612;23.066;2022-07-17T12:34:44;93586.50;;;39.59;20.00
7986;BME280;4038;42.612;23.066;2022-07-17T12:37:20;93573.88;;;39.70;19.40
7986;BME280;4038;42.612;23.066;2022-07-17T12:39:49;93582.91;;;39.86;19.24
7986;BME280;4038;42.612;23.066;2022-07-17T12:42:15;93574.72;;;38.67;20.47
7986;BME280;4038;42.612;23.066;2022-07-17T12:44:42;93570.34;;;38.90;20.49
7986;BME280;4038;42.612;23.066;2022-07-17T12:47:08;93570.50;;;38.22;21.23
7986;BME280;4038;42.612;23.066;2022-07-17T12:49:33;93573.09;;;39.12;20.00
7986;BME280;4038;42.612;23.066;2022-07-17T12:51:59;93569.72;;;38.20;21.44
7986;BME280;4038;42.612;23.066;2022-07-17T12:54:24;93557.38;;;37.26;22.24
7986;BME280;4038;42.612;23.066;2022-07-17T12:56:50;93577.81;;;39.83;19.94
7986;BME280;4038;42.612;23.066;2022-07-17T12:59:15;93576.44;;;40.49;19.10
7986;BME280;4038;42.612;23.066;2022-07-17T13:01:41;93568.28;;;40.70;18.86
7986;BME280;4038;42.612;23.066;2022-07-17T13:04:07;93567.50;;;41.03;18.60
7986;BME280;4038;42.612;23.066;2022-07-17T13:06:32;93561.41;;;40.85;18.68
7986;BME280;4038;42.612;23.066;2022-07-17T13:08:58;93561.81;;;41.07;18.61
7986;BME280;4038;42.612;23.066;2022-07-17T13:11:24;93552.47;;;39.45;20.19
7986;BME280;4038;42.612;23.066;2022-07-17T13:13:50;93564.03;;;39.79;20.29
7986;BME280;4038;42.612;23.066;2022-07-17T13:16:15;93566.25;;;39.80;19.47
7986;BME280;4038;42.612;23.066;2022-07-17T13:18:41;93568.31;;;39.48;20.09
7986;BME280;4038;42.612;23.066;2022-07-17T13:21:07;93560.88;;;39.37;19.86
7986;BME280;4038;42.612;23.066;2022-07-17T13:23:33;93560.78;;;38.81;20.60
7986;BME280;4038;42.612;23.066;2022-07-17T13:25:59;93564.19;;;38.50;21.97